sensor_id;sensor_type;location;lat;lon;timestamp;P1;durP1;ratioP1;P2;durP2;ratioP2
40793;SDS011;26502;51.886;15.604;2022-11-21T00:03:50;33.40;;;18.20;;
40793;SDS011;26502;51.886;15.604;2022-11-21T00:08:57;32.40;;;17.00;;
40793;SDS011;26502;51.886;15.604;2022-11-21T00:14:04;29.90;;;16.60;;
40793;SDS011;26502;51.886;15.604;2022-11-21T00:19:11;27.70;;;15.40;;
40793;SDS011;26502;51.886;15.604;2022-11-21T00:24:19;32.70;;;16.20;;
40793;SDS011;26502;51.886;15.604;2022-11-21T00:29:27;33.90;;;17.40;;
40793;SDS011;26502;51.886;15.604;2022-11-21T00:34:34;28.50;;;15.50;;
40793;SDS011;26502;51.886;15.604;2022-11-21T00:39:42;31.50;;;17.10;;
40793;SDS011;26502;51.886;15.604;2022-11-21T00:44:49;32.20;;;16.90;;
40793;SDS011;26502;51.886;15.604;2022-11-21T00:49:56;34.80;;;17.50;;
40793;SDS011;26502;51.886;15.604;2022-11-21T00:55:04;30.10;;;15.90;;
40793;SDS011;26502;51.886;15.604;2022-11-21T01:00:13;26.80;;;15.20;;
40793;SDS011;26502;51.886;15.604;2022-11-21T01:05:21;31.10;;;15.20;;
40793;SDS011;26502;51.886;15.604;2022-11-21T01:10:28;30.00;;;16.30;;
40793;SDS011;26502;51.886;15.604;2022-11-21T01:15:36;29.40;;;17.20;;
40793;SDS011;26502;51.886;15.604;2022-11-21T01:20:43;30.40;;;16.40;;
40793;SDS011;26502;51.886;15.604;2022-11-21T01:25:50;30.90;;;16.10;;
40793;SDS011;26502;51.886;15.604;2022-11-21T01:31:03;33.30;;;16.40;;
40793;SDS011;26502;51.886;15.604;2022-11-21T01:36:12;34.70;;;17.40;;
40793;SDS011;26502;51.886;15.604;2022-11-21T01:41:21;34.50;;;17.40;;
40793;SDS011;26502;51.886;15.604;2022-11-21T01:46:31;33.20;;;18.20;;
40793;SDS011;26502;51.886;15.604;2022-11-21T01:51:39;34.90;;;19.10;;
40793;SDS011;26502;51.886;15.604;2022-11-21T01:56:52;36.10;;;18.80;;
40793;SDS011;26502;51.886;15.604;2022-11-21T02:02:05;40.50;;;20.80;;
40793;SDS011;26502;51.886;15.604;2022-11-21T02:07:15;38.70;;;19.90;;
40793;SDS011;26502;51.886;15.604;2022-11-21T02:12:25;35.00;;;17.50;;
40793;SDS011;26502;51.886;15.604;2022-11-21T02:23:22;51.30;;;24.30;;
40793;SDS011;26502;51.886;15.604;2022-11-21T02:28:39;50.80;;;25.10;;
40793;SDS011;26502;51.886;15.604;2022-11-21T02:33:46;52.80;;;25.70;;
40793;SDS011;26502;51.886;15.604;2022-11-21T02:38:54;53.40;;;25.50;;
40793;SDS011;26502;51.886;15.604;2022-11-21T02:44:02;50.90;;;25.00;;
40793;SDS011;26502;51.886;15.604;2022-11-21T02:49:13;50.70;;;25.40;;
40793;SDS011;26502;51.886;15.604;2022-11-21T02:54:25;46.80;;;24.20;;
40793;SDS011;26502;51.886;15.604;2022-11-21T02:59:34;43.90;;;23.70;;
40793;SDS011;26502;51.886;15.604;2022-11-21T03:04:41;38.90;;;19.40;;
40793;SDS011;26502;51.886;15.604;2022-11-21T03:09:49;42.20;;;21.60;;
40793;SDS011;26502;51.886;15.604;2022-11-21T03:14:56;39.20;;;20.00;;
40793;SDS011;26502;51.886;15.604;2022-11-21T03:20:04;43.80;;;20.90;;
40793;SDS011;26502;51.886;15.604;2022-11-21T03:25:12;40.00;;;21.20;;
40793;SDS011;26502;51.886;15.604;2022-11-21T03:30:20;42.20;;;22.10;;
40793;SDS011;26502;51.886;15.604;2022-11-21T03:35:29;34.60;;;19.10;;
40793;SDS011;26502;51.886;15.604;2022-11-21T03:40:38;44.90;;;22.10;;
40793;SDS011;26502;51.886;15.604;2022-11-21T03:45:48;43.60;;;22.80;;
40793;SDS011;26502;51.886;15.604;2022-11-21T03:50:58;40.80;;;21.40;;
40793;SDS011;26502;51.886;15.604;2022-11-21T03:56:05;44.10;;;22.80;;
40793;SDS011;26502;51.886;15.604;2022-11-21T04:01:13;43.60;;;21.90;;
40793;SDS011;26502;51.886;15.604;2022-11-21T04:06:22;42.70;;;23.00;;
40793;SDS011;26502;51.886;15.604;2022-11-21T04:11:31;43.80;;;22.80;;
40793;SDS011;26502;51.886;15.604;2022-11-21T04:16:45;42.60;;;23.50;;
40793;SDS011;26502;51.886;15.604;2022-11-21T04:21:53;41.90;;;21.00;;
40793;SDS011;26502;51.886;15.604;2022-11-21T04:27:00;38.60;;;21.40;;
40793;SDS011;26502;51.886;15.604;2022-11-21T04:32:07;37.00;;;20.30;;
40793;SDS011;26502;51.886;15.604;2022-11-21T04:37:16;34.80;;;19.80;;
40793;SDS011;26502;51.886;15.604;2022-11-21T04:42:24;38.10;;;19.80;;
40793;SDS011;26502;51.886;15.604;2022-11-21T04:47:31;34.60;;;18.80;;
40793;SDS011;26502;51.886;15.604;2022-11-21T04:53:22;32.90;;;19.00;;
40793;SDS011;26502;51.886;15.604;2022-11-21T04:58:29;34.60;;;18.40;;
40793;SDS011;26502;51.886;15.604;2022-11-21T05:03:37;39.10;;;18.60;;
40793;SDS011;26502;51.886;15.604;2022-11-21T05:08:44;37.80;;;19.20;;
40793;SDS011;26502;51.886;15.604;2022-11-21T05:13:52;36.60;;;20.50;;
40793;SDS011;26502;51.886;15.604;2022-11-21T05:19:00;35.90;;;17.90;;
40793;SDS011;26502;51.886;15.604;2022-11-21T05:24:08;29.50;;;17.10;;
40793;SDS011;26502;51.886;15.604;2022-11-21T05:29:15;32.70;;;17.40;;
40793;SDS011;26502;51.886;15.604;2022-11-21T05:34:22;31.00;;;16.80;;
40793;SDS011;26502;51.886;15.604;2022-11-21T05:39:30;32.10;;;16.80;;
40793;SDS011;26502;51.886;15.604;2022-11-21T05:44:37;29.60;;;16.50;;
40793;SDS011;26502;51.886;15.604;2022-11-21T05:49:44;30.50;;;15.70;;
40793;SDS011;26502;51.886;15.604;2022-11-21T05:54:54;27.70;;;15.60;;
40793;SDS011;26502;51.886;15.604;2022-11-21T06:00:01;27.60;;;15.30;;
40793;SDS011;26502;51.886;15.604;2022-11-21T06:05:10;28.90;;;15.70;;
40793;SDS011;26502;51.886;15.604;2022-11-21T06:10:35;29.00;;;15.60;;
40793;SDS011;26502;51.886;15.604;2022-11-21T06:15:50;28.20;;;15.30;;
40793;SDS011;26502;51.886;15.604;2022-11-21T06:26:10;31.40;;;16.80;;
40793;SDS011;26502;51.886;15.604;2022-11-21T06:31:19;32.60;;;17.20;;
40793;SDS011;26502;51.886;15.604;2022-11-21T06:36:27;32.60;;;17.50;;
40793;SDS011;26502;51.886;15.604;2022-11-21T06:41:35;31.50;;;17.60;;
40793;SDS011;26502;51.886;15.604;2022-11-21T06:46:44;33.80;;;16.20;;
40793;SDS011;26502;51.886;15.604;2022-11-21T06:51:51;31.80;;;17.60;;
40793;SDS011;26502;51.886;15.604;2022-11-21T06:56:58;32.80;;;17.50;;
40793;SDS011;26502;51.886;15.604;2022-11-21T07:02:09;36.10;;;18.60;;
40793;SDS011;26502;51.886;15.604;2022-11-21T07:07:18;31.20;;;17.00;;
40793;SDS011;26502;51.886;15.604;2022-11-21T07:12:26;32.50;;;18.40;;
40793;SDS011;26502;51.886;15.604;2022-11-21T07:17:52;33.40;;;18.80;;
40793;SDS011;26502;51.886;15.604;2022-11-21T07:23:01;28.50;;;15.60;;
40793;SDS011;26502;51.886;15.604;2022-11-21T07:28:10;40.90;;;21.10;;
40793;SDS011;26502;51.886;15.604;2022-11-21T07:33:17;38.70;;;20.60;;
40793;SDS011;26502;51.886;15.604;2022-11-21T07:38:25;38.80;;;21.40;;
40793;SDS011;26502;51.886;15.604;2022-11-21T07:43:34;40.80;;;22.00;;
40793;SDS011;26502;51.886;15.604;2022-11-21T07:48:42;40.90;;;21.40;;
40793;SDS011;26502;51.886;15.604;2022-11-21T07:53:50;41.60;;;22.90;;
40793;SDS011;26502;51.886;15.604;2022-11-21T07:58:57;42.70;;;22.70;;
40793;SDS011;26502;51.886;15.604;2022-11-21T08:04:05;39.70;;;21.10;;
40793;SDS011;26502;51.886;15.604;2022-11-21T08:09:13;38.10;;;22.00;;
40793;SDS011;26502;51.886;15.604;2022-11-21T08:14:21;45.70;;;24.20;;
40793;SDS011;26502;51.886;15.604;2022-11-21T08:19:28;49.40;;;23.90;;
40793;SDS011;26502;51.886;15.604;2022-11-21T08:24:36;46.00;;;23.60;;
40793;SDS011;26502;51.886;15.604;2022-11-21T08:29:43;42.90;;;24.00;;
40793;SDS011;26502;51.886;15.604;2022-11-21T08:34:51;44.70;;;24.20;;
40793;SDS011;26502;51.886;15.604;2022-11-21T08:39:59;41.80;;;22.60;;
40793;SDS011;26502;51.886;15.604;2022-11-21T08:45:09;47.10;;;25.30;;
40793;SDS011;26502;51.886;15.604;2022-11-21T08:50:16;51.20;;;28.80;;
40793;SDS011;26502;51.886;15.604;2022-11-21T08:55:24;48.60;;;26.30;;
40793;SDS011;26502;51.886;15.604;2022-11-21T09:00:31;50.80;;;27.50;;
40793;SDS011;26502;51.886;15.604;2022-11-21T09:05:40;52.40;;;28.50;;
40793;SDS011;26502;51.886;15.604;2022-11-21T09:10:48;50.30;;;27.70;;
40793;SDS011;26502;51.886;15.604;2022-11-21T09:15:58;53.50;;;29.30;;
40793;SDS011;26502;51.886;15.604;2022-11-21T09:21:23;51.70;;;27.00;;
40793;SDS011;26502;51.886;15.604;2022-11-21T09:26:30;54.10;;;29.10;;
40793;SDS011;26502;51.886;15.604;2022-11-21T09:31:38;48.80;;;27.30;;
40793;SDS011;26502;51.886;15.604;2022-11-21T09:36:45;50.50;;;27.00;;
40793;SDS011;26502;51.886;15.604;2022-11-21T09:41:54;53.10;;;29.00;;
40793;SDS011;26502;51.886;15.604;2022-11-21T09:47:18;61.00;;;31.80;;
40793;SDS011;26502;51.886;15.604;2022-11-21T09:52:34;53.20;;;30.00;;
40793;SDS011;26502;51.886;15.604;2022-11-21T09:57:46;55.60;;;28.90;;
40793;SDS011;26502;51.886;15.604;2022-11-21T10:02:54;55.80;;;29.80;;
40793;SDS011;26502;51.886;15.604;2022-11-21T10:08:04;64.90;;;31.50;;
40793;SDS011;26502;51.886;15.604;2022-11-21T10:13:25;59.40;;;31.00;;
40793;SDS011;26502;51.886;15.604;2022-11-21T10:18:59;64.50;;;32.70;;
40793;SDS011;26502;51.886;15.604;2022-11-21T10:24:23;60.20;;;30.90;;
40793;SDS011;26502;51.886;15.604;2022-11-21T10:29:42;62.80;;;32.80;;
40793;SDS011;26502;51.886;15.604;2022-11-21T10:34:57;66.90;;;33.20;;
40793;SDS011;26502;51.886;15.604;2022-11-21T10:40:13;55.40;;;28.20;;
40793;SDS011;26502;51.886;15.604;2022-11-21T10:45:27;59.70;;;31.70;;
40793;SDS011;26502;51.886;15.604;2022-11-21T10:50:39;61.50;;;30.60;;
40793;SDS011;26502;51.886;15.604;2022-11-21T10:56:00;64.70;;;32.70;;
40793;SDS011;26502;51.886;15.604;2022-11-21T11:01:22;74.80;;;35.80;;
40793;SDS011;26502;51.886;15.604;2022-11-21T11:06:31;68.80;;;32.20;;
40793;SDS011;26502;51.886;15.604;2022-11-21T11:11:39;65.70;;;32.00;;
40793;SDS011;26502;51.886;15.604;2022-11-21T11:16:47;66.10;;;31.20;;
40793;SDS011;26502;51.886;15.604;2022-11-21T11:21:54;60.70;;;28.50;;
40793;SDS011;26502;51.886;15.604;2022-11-21T11:27:02;64.20;;;30.50;;
40793;SDS011;26502;51.886;15.604;2022-11-21T11:32:11;68.40;;;32.30;;
40793;SDS011;26502;51.886;15.604;2022-11-21T11:37:24;63.70;;;32.40;;
40793;SDS011;26502;51.886;15.604;2022-11-21T11:48:26;62.00;;;32.10;;
40793;SDS011;26502;51.886;15.604;2022-11-21T11:53:34;59.50;;;27.20;;
40793;SDS011;26502;51.886;15.604;2022-11-21T11:58:46;60.80;;;30.50;;
40793;SDS011;26502;51.886;15.604;2022-11-21T12:03:58;58.80;;;29.60;;
40793;SDS011;26502;51.886;15.604;2022-11-21T12:09:13;64.80;;;29.80;;
40793;SDS011;26502;51.886;15.604;2022-11-21T12:14:32;64.50;;;32.20;;
40793;SDS011;26502;51.886;15.604;2022-11-21T12:20:13;64.10;;;32.30;;
40793;SDS011;26502;51.886;15.604;2022-11-21T12:25:24;56.70;;;30.50;;
40793;SDS011;26502;51.886;15.604;2022-11-21T12:36:23;45.90;;;23.10;;
40793;SDS011;26502;51.886;15.604;2022-11-21T12:41:36;55.20;;;29.60;;
40793;SDS011;26502;51.886;15.604;2022-11-21T12:47:16;143.50;;;56.60;;
40793;SDS011;26502;51.886;15.604;2022-11-21T12:52:55;113.20;;;46.20;;
40793;SDS011;26502;51.886;15.604;2022-11-21T12:58:26;160.60;;;60.70;;
40793;SDS011;26502;51.886;15.604;2022-11-21T13:03:44;95.10;;;38.90;;
40793;SDS011;26502;51.886;15.604;2022-11-21T13:09:01;60.00;;;26.50;;
40793;SDS011;26502;51.886;15.604;2022-11-21T13:14:16;87.90;;;32.10;;
40793;SDS011;26502;51.886;15.604;2022-11-21T13:19:33;37.50;;;17.40;;
40793;SDS011;26502;51.886;15.604;2022-11-21T13:24:57;33.60;;;17.30;;
40793;SDS011;26502;51.886;15.604;2022-11-21T13:30:20;31.10;;;17.00;;
40793;SDS011;26502;51.886;15.604;2022-11-21T13:41:09;39.10;;;17.80;;
40793;SDS011;26502;51.886;15.604;2022-11-21T13:47:08;29.30;;;14.90;;
40793;SDS011;26502;51.886;15.604;2022-11-21T13:52:46;20.70;;;11.30;;
40793;SDS011;26502;51.886;15.604;2022-11-21T13:58:06;26.60;;;13.70;;
40793;SDS011;26502;51.886;15.604;2022-11-21T14:03:30;39.00;;;17.60;;
40793;SDS011;26502;51.886;15.604;2022-11-21T14:14:33;34.50;;;18.50;;
40793;SDS011;26502;51.886;15.604;2022-11-21T14:19:43;52.90;;;26.30;;
40793;SDS011;26502;51.886;15.604;2022-11-21T14:24:52;39.00;;;21.90;;
40793;SDS011;26502;51.886;15.604;2022-11-21T14:30:04;33.90;;;20.40;;
40793;SDS011;26502;51.886;15.604;2022-11-21T14:41:21;49.00;;;24.00;;
40793;SDS011;26502;51.886;15.604;2022-11-21T14:46:32;80.70;;;31.30;;
40793;SDS011;26502;51.886;15.604;2022-11-21T14:51:40;33.50;;;17.70;;
40793;SDS011;26502;51.886;15.604;2022-11-21T14:56:50;66.60;;;25.90;;
40793;SDS011;26502;51.886;15.604;2022-11-21T15:02:02;37.40;;;22.50;;
40793;SDS011;26502;51.886;15.604;2022-11-21T15:07:19;237.20;;;74.40;;
40793;SDS011;26502;51.886;15.604;2022-11-21T15:12:28;35.90;;;17.00;;
40793;SDS011;26502;51.886;15.604;2022-11-21T15:17:41;20.30;;;11.60;;
40793;SDS011;26502;51.886;15.604;2022-11-21T15:22:49;29.40;;;15.80;;
40793;SDS011;26502;51.886;15.604;2022-11-21T15:28:07;39.50;;;19.00;;
40793;SDS011;26502;51.886;15.604;2022-11-21T15:33:19;36.20;;;18.60;;
40793;SDS011;26502;51.886;15.604;2022-11-21T15:38:30;53.20;;;25.00;;
40793;SDS011;26502;51.886;15.604;2022-11-21T15:43:44;36.20;;;18.90;;
40793;SDS011;26502;51.886;15.604;2022-11-21T15:48:56;73.80;;;28.10;;
40793;SDS011;26502;51.886;15.604;2022-11-21T15:54:17;31.00;;;12.00;;
40793;SDS011;26502;51.886;15.604;2022-11-21T15:59:25;21.30;;;11.00;;
40793;SDS011;26502;51.886;15.604;2022-11-21T16:04:33;18.00;;;9.90;;
40793;SDS011;26502;51.886;15.604;2022-11-21T16:09:57;10.40;;;6.80;;
40793;SDS011;26502;51.886;15.604;2022-11-21T16:15:06;16.20;;;9.50;;
40793;SDS011;26502;51.886;15.604;2022-11-21T16:20:14;18.80;;;11.20;;
40793;SDS011;26502;51.886;15.604;2022-11-21T16:25:22;31.20;;;17.20;;
40793;SDS011;26502;51.886;15.604;2022-11-21T16:30:30;47.70;;;21.20;;
40793;SDS011;26502;51.886;15.604;2022-11-21T16:35:38;44.10;;;19.20;;
40793;SDS011;26502;51.886;15.604;2022-11-21T16:46:30;36.30;;;18.50;;
40793;SDS011;26502;51.886;15.604;2022-11-21T16:51:37;40.20;;;19.80;;
40793;SDS011;26502;51.886;15.604;2022-11-21T16:56:44;32.80;;;20.30;;
40793;SDS011;26502;51.886;15.604;2022-11-21T17:01:52;40.10;;;21.90;;
40793;SDS011;26502;51.886;15.604;2022-11-21T17:07:00;33.60;;;20.50;;
40793;SDS011;26502;51.886;15.604;2022-11-21T17:12:08;37.10;;;21.70;;
40793;SDS011;26502;51.886;15.604;2022-11-21T17:17:16;37.80;;;21.70;;
40793;SDS011;26502;51.886;15.604;2022-11-21T17:22:24;26.90;;;17.00;;
40793;SDS011;26502;51.886;15.604;2022-11-21T17:27:32;25.30;;;14.90;;
40793;SDS011;26502;51.886;15.604;2022-11-21T17:32:43;22.10;;;13.60;;
40793;SDS011;26502;51.886;15.604;2022-11-21T17:37:51;27.00;;;16.00;;
40793;SDS011;26502;51.886;15.604;2022-11-21T17:43:03;17.60;;;11.70;;
40793;SDS011;26502;51.886;15.604;2022-11-21T17:48:11;25.20;;;14.50;;
40793;SDS011;26502;51.886;15.604;2022-11-21T17:53:20;28.30;;;17.20;;
40793;SDS011;26502;51.886;15.604;2022-11-21T17:58:28;25.80;;;15.80;;
40793;SDS011;26502;51.886;15.604;2022-11-21T18:03:37;26.00;;;14.70;;
40793;SDS011;26502;51.886;15.604;2022-11-21T18:08:46;24.80;;;13.70;;
40793;SDS011;26502;51.886;15.604;2022-11-21T18:13:54;21.10;;;10.70;;
40793;SDS011;26502;51.886;15.604;2022-11-21T18:19:02;16.90;;;11.00;;
40793;SDS011;26502;51.886;15.604;2022-11-21T18:24:10;14.90;;;8.70;;
40793;SDS011;26502;51.886;15.604;2022-11-21T18:29:17;13.40;;;8.70;;
40793;SDS011;26502;51.886;15.604;2022-11-21T18:34:26;13.10;;;8.50;;
40793;SDS011;26502;51.886;15.604;2022-11-21T18:39:33;10.40;;;7.50;;
40793;SDS011;26502;51.886;15.604;2022-11-21T18:44:41;11.70;;;7.00;;
40793;SDS011;26502;51.886;15.604;2022-11-21T19:00:43;23.40;;;13.80;;
40793;SDS011;26502;51.886;15.604;2022-11-21T19:05:52;22.50;;;12.50;;
40793;SDS011;26502;51.886;15.604;2022-11-21T19:11:01;17.70;;;10.20;;
40793;SDS011;26502;51.886;15.604;2022-11-21T19:16:11;16.80;;;10.20;;
40793;SDS011;26502;51.886;15.604;2022-11-21T19:21:19;15.20;;;9.20;;
40793;SDS011;26502;51.886;15.604;2022-11-21T19:26:37;14.20;;;9.20;;
40793;SDS011;26502;51.886;15.604;2022-11-21T19:31:45;15.90;;;10.00;;
40793;SDS011;26502;51.886;15.604;2022-11-21T19:36:54;13.90;;;9.60;;
40793;SDS011;26502;51.886;15.604;2022-11-21T19:42:11;16.90;;;11.20;;
40793;SDS011;26502;51.886;15.604;2022-11-21T19:47:27;16.20;;;10.10;;
40793;SDS011;26502;51.886;15.604;2022-11-21T19:52:35;19.20;;;11.70;;
40793;SDS011;26502;51.886;15.604;2022-11-21T19:57:47;16.30;;;11.40;;
40793;SDS011;26502;51.886;15.604;2022-11-21T20:02:55;16.60;;;10.60;;
40793;SDS011;26502;51.886;15.604;2022-11-21T20:08:03;18.90;;;12.20;;
40793;SDS011;26502;51.886;15.604;2022-11-21T20:13:11;21.80;;;12.10;;
40793;SDS011;26502;51.886;15.604;2022-11-21T20:18:19;22.90;;;13.60;;
40793;SDS011;26502;51.886;15.604;2022-11-21T20:23:27;26.30;;;15.30;;
40793;SDS011;26502;51.886;15.604;2022-11-21T20:28:36;22.00;;;13.60;;
40793;SDS011;26502;51.886;15.604;2022-11-21T20:33:44;21.60;;;12.20;;
40793;SDS011;26502;51.886;15.604;2022-11-21T20:38:56;19.20;;;11.90;;
40793;SDS011;26502;51.886;15.604;2022-11-21T20:44:07;18.00;;;12.00;;
40793;SDS011;26502;51.886;15.604;2022-11-21T20:49:20;17.40;;;10.50;;
40793;SDS011;26502;51.886;15.604;2022-11-21T20:54:27;15.00;;;9.60;;
40793;SDS011;26502;51.886;15.604;2022-11-21T20:59:35;15.30;;;8.90;;
40793;SDS011;26502;51.886;15.604;2022-11-21T21:04:42;14.00;;;8.70;;
40793;SDS011;26502;51.886;15.604;2022-11-21T21:09:49;17.20;;;11.20;;
40793;SDS011;26502;51.886;15.604;2022-11-21T21:14:58;17.50;;;12.10;;
40793;SDS011;26502;51.886;15.604;2022-11-21T21:20:07;24.60;;;13.80;;
40793;SDS011;26502;51.886;15.604;2022-11-21T21:30:20;20.70;;;12.50;;
40793;SDS011;26502;51.886;15.604;2022-11-21T21:35:28;19.80;;;11.70;;
40793;SDS011;26502;51.886;15.604;2022-11-21T21:40:35;18.10;;;11.70;;
40793;SDS011;26502;51.886;15.604;2022-11-21T21:45:42;17.60;;;11.60;;
40793;SDS011;26502;51.886;15.604;2022-11-21T21:50:49;20.40;;;13.00;;
40793;SDS011;26502;51.886;15.604;2022-11-21T21:55:58;19.40;;;12.40;;
40793;SDS011;26502;51.886;15.604;2022-11-21T22:01:05;20.30;;;12.70;;
40793;SDS011;26502;51.886;15.604;2022-11-21T22:06:15;22.90;;;12.60;;
40793;SDS011;26502;51.886;15.604;2022-11-21T22:11:23;22.10;;;13.30;;
40793;SDS011;26502;51.886;15.604;2022-11-21T22:16:34;19.90;;;12.60;;
40793;SDS011;26502;51.886;15.604;2022-11-21T22:21:42;23.70;;;13.70;;
40793;SDS011;26502;51.886;15.604;2022-11-21T22:26:49;20.60;;;12.90;;
40793;SDS011;26502;51.886;15.604;2022-11-21T22:31:56;21.10;;;12.90;;
40793;SDS011;26502;51.886;15.604;2022-11-21T22:37:04;22.00;;;12.30;;
40793;SDS011;26502;51.886;15.604;2022-11-21T22:42:12;19.80;;;11.40;;
40793;SDS011;26502;51.886;15.604;2022-11-21T22:47:20;19.60;;;11.90;;
40793;SDS011;26502;51.886;15.604;2022-11-21T22:52:27;22.70;;;13.50;;
40793;SDS011;26502;51.886;15.604;2022-11-21T22:57:36;22.20;;;12.80;;
40793;SDS011;26502;51.886;15.604;2022-11-21T23:02:43;23.00;;;13.10;;
40793;SDS011;26502;51.886;15.604;2022-11-21T23:07:51;22.20;;;12.80;;
40793;SDS011;26502;51.886;15.604;2022-11-21T23:13:00;22.90;;;13.10;;
40793;SDS011;26502;51.886;15.604;2022-11-21T23:18:07;20.60;;;11.90;;
40793;SDS011;26502;51.886;15.604;2022-11-21T23:23:16;20.50;;;11.80;;
40793;SDS011;26502;51.886;15.604;2022-11-21T23:28:23;19.10;;;10.80;;
40793;SDS011;26502;51.886;15.604;2022-11-21T23:33:30;19.60;;;12.30;;
40793;SDS011;26502;51.886;15.604;2022-11-21T23:38:37;20.90;;;13.40;;
40793;SDS011;26502;51.886;15.604;2022-11-21T23:43:45;22.40;;;12.60;;
40793;SDS011;26502;51.886;15.604;2022-11-21T23:48:52;20.80;;;13.40;;
40793;SDS011;26502;51.886;15.604;2022-11-21T23:54:00;21.60;;;12.40;;
40793;SDS011;26502;51.886;15.604;2022-11-21T23:59:07;23.60;;;13.30;;
